This is the latest recevied weather packets stored in our database for station/object s55g-5. If no packets are shown the sender has not sent any weather packets the latest 10 day(s).
| Time | Temp. | Humidity | Pressure | Rain* | Wind** | Luminosity | Snow |
|---|---|---|---|---|---|---|---|
| 1776949744 | 19.44° C | 39% | 1020.6 hPa | 0 mm | - | - | - |
| 1776949204 | 20.56° C | 38% | 1020.7 hPa | 0 mm | - | - | - |
| 1776948303 | 22.22° C | 37% | 1020.9 hPa | 0 mm | - | - | - |
| 1776947224 | 20.56° C | 41% | 1021.1 hPa | 0 mm | - | - | - |
| 1776945244 | 20.56° C | 39% | 1021.4 hPa | 0 mm | - | - | - |
| 1776942004 | 19.44° C | 38% | 1022.1 hPa | 0 mm | - | - | - |
| 1776941778 | 19.44° C | 40% | 1022.4 hPa | 0 mm | - | - | - |
| 1776940158 | 18.89° C | 39% | 1022.7 hPa | 0 mm | - | - | - |
| 1776938044 | 18.33° C | 38% | 1023.2 hPa | 0 mm | - | - | - |
| 1776936964 | 17.78° C | 40% | 1023.3 hPa | 0 mm | - | - | - |
| 1776936424 | 17.78° C | 38% | 1023.5 hPa | 0 mm | - | - | - |
| 1776934577 | 17.22° C | 39% | 1023.7 hPa | 0 mm | - | - | - |
| 1776932824 | 17.22° C | 42% | 1024.3 hPa | 0 mm | - | - | - |
| 1776924544 | 8.33° C | 71% | 1024.6 hPa | 0 mm | - | - | - |
| 1776924003 | 7.22° C | 74% | 1024.7 hPa | 0 mm | - | - | - |
| 1776923778 | 7.22° C | 76% | 1024.9 hPa | 0 mm | - | - | - |
| 1776923104 | 6.67° C | 78% | 1024.7 hPa | 0 mm | - | - | - |
| 1776921484 | 3.89° C | 89% | 1024.5 hPa | 0 mm | - | - | - |
| 1776921079 | 3.33° C | 91% | 1024.5 hPa | 0 mm | - | - | - |
| 1776920403 | 3.33° C | 94% | 1024.3 hPa | 0 mm | - | - | - |
| 1776916804 | 1.67° C | 95% | 1024 hPa | 0 mm | - | - | - |
| 1776914284 | 1.67° C | 94% | 1024 hPa | 0 mm | - | - | - |
| 1776911359 | 2.22° C | 92% | 1024.2 hPa | 0 mm | - | - | - |
| 1776910684 | 2.22° C | 92% | 1024.3 hPa | 0 mm | - | - | - |
| 1776909604 | 2.22° C | 92% | 1024.2 hPa | 0 mm | - | - | - |
* Rain latest hour (hover to see other rain measurements)
** Current wind speed in m/s (hover to see current wind gust speed)